Terminal Aerodrome Forecast
Issued by NWS Detroit/Pontiac, MI

Home | Current Version | Previous Version | Text Only | Print | Product List | Glossary On
Versions: 1 2 3 4 5 6 7 8 9 10 11 12 13 14 15 16 17 18 19 20 21 22 23 24 25 26 27 28 29 30
977
FTUS43 KDTX 260905 AAA
TAFDTW
TAF AMD
KDTW 260905Z 2609/2712 26010KT P6SM -SHSN SCT025 OVC040
     FM261100 24010KT P6SM SCT150 BKN250
     FM261700 22018G28KT P6SM SCT050 BKN070
     FM270000 21014KT P6SM SCT070
     FM270600 20009KT P6SM FEW100=

USA.gov is the U.S. government's official web portal to all federal, state and local government web resources and services.